• Join FlightAware (Why Join?)
  • Login
  • US Flag 
06:07AM EDT


 

Airport Tracker/Info


-or-


 

Live Flight TrackerFlight Track Log ✈ BAW196 ✈ 10-Jun-2013 ✈ KIAH - EGLL / LHR

Flight Track Log - Related Links

Times and Time Zones

All times are in EDT time to prevent confusion due to time zone crossing. See the BAW196 flight status page for this flight to view local times or setup timezone preferences in your user account.

Time Position Orientation Groundspeed Altitude Reporting Facility
EDT Latitude Longitude Course Direction KTS MPH feet Rate Location/Type
10:09PM 29.9330 -95.3017 122° Southeast 208 239 1,900  Level FlightAware ADS-B
10:09PM 29.9248 -95.2866 122° Southeast 221 254 2,100 1,200 Climbing FlightAware ADS-B
10:09PM 29.9163 -95.2712 122° Southeast 233 268 2,500 1,140 Climbing FlightAware ADS-B
10:09PM 29.9070 -95.2542 122° Southeast 249 287 2,700 1,020 Climbing FlightAware ADS-B
10:09PM 29.9022 -95.2456 123° Southeast 253 291 2,900 1,860 Climbing FlightAware ADS-B
10:10PM 29.8926 -95.2285 123° Southeast 255 293 3,400 1,920 Climbing FlightAware ADS-B
10:10PM 29.8821 -95.2103 124° Southeast 256 295 3,900 1,980 Climbing FlightAware ADS-B
10:10PM 29.8776 -95.2013 120° Southeast 258 297 4,200 1,980 Climbing FlightAware ADS-B
10:10PM 29.8757 -95.1962 113° Southeast 260 299 4,300 1,680 Climbing FlightAware ADS-B
10:10PM 29.8746 -95.1922 108° East 260 299 4,400 2,220 Climbing FlightAware ADS-B
10:10PM 29.8729 -95.1853 106° East 261 300 4,600 1,800 Climbing FlightAware ADS-B
10:11PM 29.8687 -95.1649 103° East 263 303 5,000 1,740 Climbing FlightAware ADS-B
10:11PM 29.8646 -95.1436 103° East 267 307 5,500 1,740 Climbing FlightAware ADS-B
10:11PM 29.8605 -95.1224 103° East 270 311 5,900 1,800 Climbing FlightAware ADS-B
10:11PM 29.8563 -95.1006 103° East 273 314 6,400 1,800 Climbing FlightAware ADS-B
10:11PM 29.8553 -95.0943 100° East 276 318 6,500 1,500 Climbing FlightAware ADS-B
10:11PM 29.8548 -95.0899 97° East 277 319 6,600 1,980 Climbing FlightAware ADS-B
10:12PM 29.8543 -95.0852 97° East 279 321 6,700 960 Climbing FlightAware ADS-B
10:12PM 29.8542 -95.0807 91° East 280 322 6,700 1,500 Level FlightAware ADS-B
10:12PM 29.8542 -95.0735 90° East 282 325 6,900 2,400 Climbing FlightAware ADS-B
10:12PM 29.8547 -95.0651 86° East 284 327 7,100 1,800 Climbing FlightAware ADS-B
10:12PM 29.8554 -95.0581 83° East 285 328 7,200 1,980 Climbing FlightAware ADS-B
10:12PM 29.8573 -95.0471 79° East 286 329 7,500 1,980 Climbing FlightAware ADS-B
10:12PM 29.8611 -95.0265 78° East 288 331 7,900 1,860 Climbing FlightAware ADS-B
10:12PM 29.8652 -95.0035 78° East 289 333 8,400 1,740 Climbing FlightAware ADS-B
10:13PM 29.8696 -94.9803 78° East 292 336 8,800 1,740 Climbing FlightAware ADS-B
10:13PM 29.8741 -94.9571 77° East 293 337 9,300 1,980 Climbing FlightAware ADS-B
10:13PM 29.8775 -94.9392 78° East 293 337 9,700 1,560 Climbing FlightAware ADS-B
10:14PM 29.8864 -94.8919 78° East 306 352 10,400 1,080 Climbing FlightAware ADS-B
10:14PM 29.8958 -94.8417 78° East 330 380 10,800 840 Climbing FlightAware ADS-B
10:15PM 29.9061 -94.7874 78° East 351 404 11,300 1,320 Climbing FlightAware ADS-B
10:15PM 29.9166 -94.7315 78° East 358 412 12,200 1,860 Climbing FlightAware ADS-B
10:16PM 29.9271 -94.6753 78° East 361 415 13,200 2,160 Climbing FlightAware ADS-B
10:16PM 29.9377 -94.6188 78° East 359 413 14,400 2,100 Climbing FlightAware ADS-B
10:17PM 29.9471 -94.5690 78° East 361 415 15,200 1,740 Climbing FlightAware ADS-B
10:17PM 29.9577 -94.5118 78° East 362 417 16,100 1,740 Climbing FlightAware ADS-B
10:18PM 29.9684 -94.4540 78° East 364 419 17,000 1,620 Climbing FlightAware ADS-B
10:18PM 29.9792 -94.3957 78° East 368 423 17,800 1,440 Climbing FlightAware ADS-B
10:19PM 29.9902 -94.3359 78° East 373 429 18,500 1,320 Climbing FlightAware ADS-B
10:19PM 29.9996 -94.2764 80° East 378 435 19,200 1,440 Climbing FlightAware ADS-B
10:20PM 30.0066 -94.2219 82° East 382 440 19,900 1,320 Climbing FlightAware ADS-B
10:20PM 30.0142 -94.1602 82° East 388 447 20,500 1,140 Climbing FlightAware ADS-B
10:21PM 30.0221 -94.0967 82° East 394 453 21,100 1,260 Climbing FlightAware ADS-B
10:21PM 30.0299 -94.0340 82° East 399 459 21,800 1,320 Climbing FlightAware ADS-B
10:22PM 30.0382 -93.9667 82° East 403 464 22,500 1,440 Climbing FlightAware ADS-B
10:22PM 30.0461 -93.9023 82° East 404 465 23,300 1,380 Climbing FlightAware ADS-B
10:23PM 30.0541 -93.8376 82° East 409 471 23,900 1,140 Climbing FlightAware ADS-B
10:23PM 30.0624 -93.7698 82° East 414 476 24,500 1,140 Climbing FlightAware ADS-B
10:24PM 30.0705 -93.7030 82° East 420 483 25,100 1,200 Climbing FlightAware ADS-B
10:24PM 30.0786 -93.6356 82° East 425 489 25,700 1,080 Climbing FlightAware ADS-B
10:25PM 30.0868 -93.5673 82° East 432 497 26,200 960 Climbing FlightAware ADS-B
10:25PM 30.0954 -93.4956 82° East 438 504 26,700 1,020 Climbing FlightAware ADS-B
10:26PM 30.1044 -93.4210 82° East 444 511 27,300 1,020 Climbing FlightAware ADS-B
10:26PM 30.1130 -93.3487 82° East 449 517 27,800 780 Climbing FlightAware ADS-B
10:27PM 30.1232 -93.2621 82° East 454 522 28,200 840 Climbing FlightAware ADS-B
10:27PM 30.1327 -93.1809 82° East 465 535 28,800 960 Climbing FlightAware ADS-B
10:28PM 30.1401 -93.1329 80° East 468 539 29,100 900 Climbing FlightAware ADS-B
10:28PM 30.1680 -93.0569 67° East 468 539 29,600 900 Climbing FlightAware ADS-B
10:29PM 30.2049 -92.9874 58° Northeast 476 548 30,100 780 Climbing FlightAware ADS-B
10:29PM 30.2454 -92.9150 57° Northeast 482 555 30,500 720 Climbing FlightAware ADS-B
10:30PM 30.2819 -92.8493 57° Northeast 490 564 30,900 720 Climbing FlightAware ADS-B
10:30PM 30.3210 -92.7781 58° Northeast 497 572 31,300 660 Climbing FlightAware ADS-B
10:31PM 30.3580 -92.7100 58° Northeast 504 580 31,600 900 Climbing FlightAware ADS-B
10:31PM 30.3961 -92.6398 58° Northeast 504 580 32,200 960 Climbing FlightAware ADS-B
10:32PM 30.4338 -92.5701 58° Northeast 506 582 32,600 780 Climbing FlightAware ADS-B
10:32PM 30.4713 -92.5008 58° Northeast 511 588 33,000 660 Climbing FlightAware ADS-B
10:33PM 30.5116 -92.4261 58° Northeast 517 595 33,300 660 Climbing FlightAware ADS-B
10:34PM 30.5510 -92.3529 58° Northeast 521 600 33,700 660 Climbing FlightAware ADS-B
10:34PM 30.5898 -92.2810 58° Northeast 527 606 34,000 660 Climbing FlightAware ADS-B
10:35PM 30.6320 -92.2024 58° Northeast 531 611 34,400 600 Climbing FlightAware ADS-B
10:35PM 30.6737 -92.1246 58° Northeast 537 618 34,700 420 Climbing FlightAware ADS-B
10:36PM 30.7033 -92.0656 58° Northeast 531 611 34,900 180 Climbing Houston Center
10:37PM 30.7828 -91.9175 58° Northeast 540 621 35,000  Climbing Houston Center
10:38PM 30.8625 -91.7692 58° Northeast 544 626 35,000  Level Houston Center
10:39PM 30.9422 -91.6206 58° Northeast 545 627 35,000  Level Houston Center
10:40PM 31.0219 -91.4728 58° Northeast 542 624 35,000  Level Houston Center
10:45PM 31.4800 -90.5910 58° Northeast 542 624 35,000  Level FlightAware
10:46PM 31.5470 -90.4640 58° Northeast 542 624 35,000  Level FlightAware
10:47PM 31.6030 -90.3510 60° Northeast 545 627 35,000  Level FlightAware
10:48PM 31.6560 -90.2460 59° Northeast 545 627 35,000  Level FlightAware
10:48PM 31.6990 -90.1620 59° Northeast 545 627 35,000  Level FlightAware
10:49PM 31.7670 -90.0300 59° Northeast 545 627 35,000  Level FlightAware
10:50PM 31.8070 -89.9520 59° Northeast 545 627 35,000  Level FlightAware
10:51PM 31.8570 -89.8530 67° East 545 627 35,000  Level FlightAware
10:51PM 31.8970 -89.7750 59° Northeast 545 627 35,000  Level FlightAware
10:52PM 31.9510 -89.6690 59° Northeast 545 627 35,000  Level FlightAware
10:53PM 31.9910 -89.5910 59° Northeast 545 627 35,000  Level FlightAware
10:54PM 32.0440 -89.4870 59° Northeast 545 627 35,000  Level FlightAware
10:54PM 32.0850 -89.4070 59° Northeast 545 627 35,000  Level FlightAware
10:55PM 32.1380 -89.3020 59° Northeast 545 627 35,000  Level FlightAware
10:56PM 32.1770 -89.2240 59° Northeast 545 627 35,000  Level FlightAware
10:57PM 32.2470 -89.0880 59° Northeast 545 627 35,000  Level FlightAware
10:57PM 32.2870 -89.0090 59° Northeast 545 627 35,000  Level FlightAware
10:58PM 32.4581 -88.6856 59° Northeast 535 616 35,000  Level Memphis Center
11:04PM 33.0290 -87.8570 59° Northeast 526 605 35,000  Level FlightAware
11:05PM 33.0840 -87.7760 51° Northeast 526 605 35,000  Level FlightAware
11:05PM 33.1560 -87.6700 51° Northeast 519 597 35,000  Level FlightAware
11:06PM 33.2060 -87.5960 51° Northeast 519 597 35,000  Level FlightAware
11:07PM 33.2680 -87.5050 51° Northeast 519 597 35,000  Level FlightAware
11:07PM 33.3170 -87.4320 51° Northeast 519 597 35,000  Level FlightAware
11:08PM 33.4140 -87.2860 51° Northeast 509 586 35,000  Level FlightAware
11:09PM 33.4720 -87.1990 51° Northeast 505 581 35,000  Level FlightAware
11:10PM 33.5260 -87.1190 51° Northeast 505 581 35,000  Level FlightAware
11:10PM 33.5950 -87.0140 52° Northeast 500 575 35,000  Level FlightAware
11:11PM 33.6500 -86.9310 51° Northeast 499 574 35,000  Level FlightAware
11:11PM 33.6809 -86.8874 50° Northeast 500 575 35,000  Level FlightAware ADS-B
11:12PM 33.7870 -86.7490 47° Northeast 497 572 35,000  Level FlightAware
11:13PM 33.8360 -86.6853 47° Northeast 495 570 35,000  Level FlightAware ADS-B
11:14PM 33.9290 -86.5640 47° Northeast 490 564 35,000  Level FlightAware
11:15PM 33.9846 -86.4923 47° Northeast 491 565 35,000  Level FlightAware ADS-B
11:15PM 34.0328 -86.4297 47° Northeast 492 566 35,000  Level FlightAware ADS-B
11:16PM 34.1033 -86.3374 47° Northeast 488 562 35,000  Level FlightAware ADS-B
11:16PM 34.1506 -86.2755 47° Northeast 487 560 35,000  Level FlightAware ADS-B
11:17PM 34.1963 -86.2154 47° Northeast 487 560 35,000  Level FlightAware ADS-B
11:17PM 34.2447 -86.1518 47° Northeast 487 560 35,000  Level FlightAware ADS-B
11:18PM 34.2916 -86.0900 47° Northeast 488 562 35,000  Level FlightAware ADS-B
11:18PM 34.3392 -86.0273 47° Northeast 490 564 35,000  Level FlightAware ADS-B
11:19PM 34.3864 -85.9649 47° Northeast 492 566 35,000  Level FlightAware ADS-B
11:19PM 34.4326 -85.9038 47° Northeast 495 570 35,000  Level FlightAware ADS-B
11:20PM 34.4799 -85.8409 48° Northeast 497 572 35,000  Level FlightAware ADS-B
11:20PM 34.5271 -85.7782 48° Northeast 492 566 35,000  Level FlightAware ADS-B
11:21PM 34.5739 -85.7160 48° Northeast 486 559 35,000  Level FlightAware ADS-B
11:22PM 34.6214 -85.6526 48° Northeast 483 556 35,000  Level FlightAware ADS-B
11:22PM 34.6678 -85.5906 48° Northeast 487 560 35,000  Level FlightAware ADS-B
11:23PM 34.7136 -85.5293 48° Northeast 489 563 35,000  Level FlightAware ADS-B
11:23PM 34.7599 -85.4672 48° Northeast 491 565 35,000  Level FlightAware ADS-B
11:24PM 34.8067 -85.4043 48° Northeast 489 563 35,000  Level FlightAware ADS-B
11:24PM 34.8598 -85.3329 48° Northeast 489 563 35,000  Level FlightAware ADS-B
11:25PM 34.9055 -85.2712 48° Northeast 489 563 35,000  Level FlightAware ADS-B
11:25PM 34.9512 -85.2096 48° Northeast 488 562 35,000  Level FlightAware ADS-B
11:26PM 34.9974 -85.1470 48° Northeast 489 563 35,000  Level FlightAware ADS-B
11:26PM 35.0584 -85.0643 48° Northeast 490 564 35,000  Level FlightAware ADS-B
11:27PM 35.1146 -84.9877 48° Northeast 491 565 35,000  Level FlightAware ADS-B
11:27PM 35.1613 -84.9241 48° Northeast 491 565 35,000  Level FlightAware ADS-B
11:28PM 35.2074 -84.8613 48° Northeast 493 567 35,000  Level FlightAware ADS-B
11:28PM 35.2535 -84.7981 48° Northeast 494 568 35,000  Level FlightAware ADS-B
11:29PM 35.2995 -84.7352 48° Northeast 494 568 35,000  Level FlightAware ADS-B
11:29PM 35.3464 -84.6709 48° Northeast 496 571 35,000  Level FlightAware ADS-B
11:30PM 35.4276 -84.5590 48° Northeast 502 578 35,000  Level FlightAware ADS-B
11:31PM 35.4747 -84.4940 48° Northeast 506 582 35,000  Level FlightAware ADS-B
11:31PM 35.5213 -84.4296 48° Northeast 507 583 35,000  Level FlightAware ADS-B
11:32PM 35.5679 -84.3651 48° Northeast 508 585 35,000  Level FlightAware ADS-B
11:32PM 35.6177 -84.2961 48° Northeast 508 585 35,000  Level FlightAware ADS-B
11:33PM 35.6665 -84.2282 48° Northeast 508 585 35,000  Level FlightAware ADS-B
11:33PM 35.7131 -84.1632 49° Northeast 509 586 35,000  Level FlightAware ADS-B
11:34PM 35.7597 -84.0981 49° Northeast 509 586 35,000  Level FlightAware ADS-B
11:34PM 35.8086 -84.0297 49° Northeast 509 586 35,000  Level FlightAware ADS-B
11:35PM 35.8559 -83.9635 49° Northeast 505 581 35,000  Level FlightAware ADS-B
11:35PM 35.8824 -83.9247 50° Northeast 509 586 35,000  Level FlightAware ADS-B
11:36PM 35.9159 -83.8630 56° Northeast 517 595 35,000  Level FlightAware ADS-B
11:36PM 35.9483 -83.7838 63° Northeast 518 596 35,000  Level FlightAware ADS-B
11:37PM 35.9795 -83.7037 64° Northeast 516 594 35,000  Level FlightAware ADS-B
11:37PM 36.0107 -83.6227 65° Northeast 514 592 35,000  Level FlightAware ADS-B
11:38PM 36.0417 -83.5423 64° Northeast 514 592 35,000  Level FlightAware ADS-B
11:38PM 36.0724 -83.4628 64° Northeast 514 592 35,000  Level FlightAware ADS-B
11:39PM 36.1033 -83.3827 64° Northeast 516 594 35,000  Level FlightAware ADS-B
11:39PM 36.1344 -83.3021 64° Northeast 519 597 35,000  Level FlightAware ADS-B
11:40PM 36.1658 -83.2202 65° Northeast 519 597 35,000  Level FlightAware ADS-B
11:40PM 36.1970 -83.1386 65° Northeast 521 600 35,000  Level FlightAware ADS-B
11:41PM 36.2182 -83.0739 68° East 525 604 35,000  Level FlightAware ADS-B
11:41PM 36.2291 -83.0183 76° East 528 608 35,000  Level FlightAware ADS-B
11:41PM 36.2418 -82.9265 80° East 529 609 35,000  Level FlightAware ADS-B
11:42PM 36.2552 -82.8367 79° East 530 610 35,000  Level FlightAware ADS-B
11:42PM 36.2647 -82.7822 78° East 531 611 35,000  Level FlightAware ADS-B
11:43PM 36.2834 -82.6905 76° East 534 615 35,000  Level FlightAware ADS-B
11:43PM 36.3019 -82.6031 75° East 534 615 35,000  Level FlightAware ADS-B
11:44PM 36.3185 -82.5109 77° East 537 618 35,000  Level FlightAware ADS-B
11:44PM 36.3415 -82.4034 75° East 538 619 35,000  Level FlightAware ADS-B
11:45PM 36.3618 -82.3138 74° East 540 621 35,000  Level FlightAware ADS-B
11:45PM 36.3820 -82.2238 74° East 541 623 35,000  Level FlightAware ADS-B
11:46PM 36.4063 -82.1411 70° East 543 625 35,000  Level FlightAware ADS-B
11:46PM 36.4207 -82.1014 66° East 543 625 35,000  Level FlightAware ADS-B
11:47PM 36.4692 -81.9883 62° Northeast 542 624 35,000  Level FlightAware ADS-B
11:47PM 36.5139 -81.8865 61° Northeast 542 624 35,000  Level FlightAware ADS-B
11:48PM 36.5810 -81.7290 62° Northeast 548 631 35,000  Level FlightAware
11:49PM 36.6157 -81.6474 62° Northeast 546 628 35,000  Level FlightAware ADS-B
11:50PM 36.6880 -81.4730 63° Northeast 552 635 35,000  Level FlightAware
11:51PM 36.7320 -81.3680 62° Northeast 554 638 35,000  Level FlightAware
11:51PM 36.7960 -81.2110 63° Northeast 556 640 35,000  Level FlightAware
11:52PM 36.8360 -81.1140 63° Northeast 559 643 35,000  Level FlightAware
11:53PM 36.8830 -80.9990 63° Northeast 564 649 35,000  Level FlightAware
11:53PM 36.9400 -80.8600 63° Northeast 558 642 35,000  Level FlightAware
11:54PM 36.9850 -80.7510 63° Northeast 556 640 35,000  Level FlightAware
11:55PM 37.0220 -80.6610 63° Northeast 556 640 35,000  Level FlightAware
11:56PM 37.0690 -80.5430 63° Northeast 556 640 35,000  Level FlightAware
11:56PM 37.1050 -80.4550 63° Northeast 556 640 35,000  Level FlightAware
11:57PM 37.1800 -80.2750 62° Northeast 561 646 35,000  Level FlightAware
11:58PM 37.2350 -80.1390 63° Northeast 561 646 35,000  Level FlightAware
11:58PM 37.2860 -80.0140 63° Northeast 560 644 35,000  Level FlightAware
11:59PM 37.3370 -79.8850 64° Northeast 558 642 35,000  Level FlightAware
12:00AM 37.3790 -79.7800 63° Northeast 559 643 35,000  Level FlightAware
12:00AM 37.4340 -79.6420 63° Northeast 557 641 35,000  Level FlightAware
12:01AM 37.4830 -79.5200 63° Northeast 558 642 35,000  Level FlightAware
12:02AM 37.5320 -79.3950 64° Northeast 558 642 35,000  Level FlightAware
12:03AM 37.5790 -79.2770 63° Northeast 557 641 35,000  Level FlightAware
12:03AM 37.6240 -79.1610 64° Northeast 556 640 35,000  Level FlightAware
12:04AM 37.6600 -79.0690 64° Northeast 555 639 35,000  Level FlightAware
12:04AM 37.7090 -78.9450 63° Northeast 554 638 35,000  Level FlightAware
12:05AM 37.7530 -78.8320 64° Northeast 554 638 35,000  Level FlightAware
12:06AM 37.8050 -78.6970 64° Northeast 553 636 35,000  Level FlightAware
12:07AM 37.8500 -78.5810 64° Northeast 552 635 35,000  Level FlightAware
12:07AM 37.8990 -78.4530 64° Northeast 551 634 35,000  Level FlightAware
12:08AM 37.9430 -78.3390 64° Northeast 550 633 35,000  Level FlightAware
12:09AM 37.9920 -78.2100 64° Northeast 548 631 35,000  Level FlightAware
12:09AM 38.0077 -78.1705 63° Northeast 550 633 35,000  Level FlightAware ADS-B
12:09AM 38.0428 -78.0805 64° Northeast 549 632 35,000  Level FlightAware ADS-B
12:10AM 38.0807 -77.9824 64° Northeast 549 632 35,000  Level FlightAware ADS-B
12:11AM 38.1160 -77.8910 64° Northeast 546 628 35,000  Level FlightAware ADS-B
12:11AM 38.1531 -77.7940 64° Northeast 544 626 35,000  Level FlightAware ADS-B
12:12AM 38.1872 -77.7065 64° Northeast 543 625 35,000  Level FlightAware ADS-B
12:12AM 38.2207 -77.6203 64° Northeast 542 624 35,000  Level FlightAware ADS-B
12:13AM 38.2583 -77.5227 64° Northeast 542 624 35,000  Level FlightAware ADS-B
12:13AM 38.2923 -77.4349 64° Northeast 540 621 35,000  Level FlightAware ADS-B
12:14AM 38.3260 -77.3487 63° Northeast 538 619 35,000  Level FlightAware ADS-B
12:14AM 38.3579 -77.2665 64° Northeast 538 619 35,000  Level FlightAware ADS-B
12:14AM 38.3645 -77.2516 61° Northeast 540 621 35,000  Level FlightAware ADS-B
12:14AM 38.3824 -77.2210 53° Northeast 541 623 35,000  Level FlightAware ADS-B
12:15AM 38.4326 -77.1492 48° Northeast 541 623 35,000  Level FlightAware ADS-B
12:15AM 38.4829 -77.0775 48° Northeast 541 623 35,000  Level FlightAware ADS-B
12:16AM 38.5323 -77.0042 49° Northeast 539 620 35,000  Level FlightAware ADS-B
12:17AM 38.5822 -76.9284 50° Northeast 537 618 35,000  Level FlightAware ADS-B
12:17AM 38.6317 -76.8522 50° Northeast 538 619 35,000  Level FlightAware ADS-B
12:18AM 38.6793 -76.7784 50° Northeast 539 620 35,000  Level FlightAware ADS-B
12:18AM 38.7007 -76.7440 51° Northeast 538 619 35,000  Level FlightAware ADS-B
12:18AM 38.7340 -76.6847 54° Northeast 537 618 35,000  Level FlightAware ADS-B
12:18AM 38.7614 -76.6296 57° Northeast 535 616 35,000  Level FlightAware ADS-B
12:19AM 38.7974 -76.5463 61° Northeast 532 612 35,000  Level FlightAware ADS-B
12:20AM 38.8336 -76.4619 61° Northeast 532 612 35,000  Level FlightAware ADS-B
12:20AM 38.8693 -76.3786 61° Northeast 531 611 35,000  Level FlightAware ADS-B
12:21AM 38.9046 -76.2952 61° Northeast 532 612 35,000  Level FlightAware ADS-B
12:21AM 38.9399 -76.2112 62° Northeast 533 613 35,000  Level FlightAware ADS-B
12:22AM 38.9752 -76.1265 62° Northeast 533 613 35,000  Level FlightAware ADS-B
12:22AM 39.0116 -76.0388 62° Northeast 535 616 35,000  Level FlightAware ADS-B
12:23AM 39.0466 -75.9543 62° Northeast 535 616 35,000  Level FlightAware ADS-B
12:23AM 39.0820 -75.8688 62° Northeast 533 613 35,000  Level FlightAware ADS-B
12:24AM 39.1165 -75.7849 62° Northeast 533 613 35,000  Level FlightAware ADS-B
12:24AM 39.1515 -75.6999 62° Northeast 532 612 35,000  Level FlightAware ADS-B
12:25AM 39.1861 -75.6155 62° Northeast 531 611 35,000  Level FlightAware ADS-B
12:25AM 39.2203 -75.5319 62° Northeast 529 609 35,000  Level FlightAware ADS-B
12:26AM 39.2548 -75.4473 62° Northeast 527 606 35,000  Level FlightAware ADS-B
12:26AM 39.2909 -75.3589 62° Northeast 528 608 35,000  Level FlightAware ADS-B
12:27AM 39.3249 -75.2750 62° Northeast 526 605 35,000  Level FlightAware ADS-B
12:27AM 39.3587 -75.1914 62° Northeast 522 601 35,000  Level FlightAware ADS-B
12:28AM 39.3933 -75.1060 62° Northeast 521 600 35,000  Level FlightAware ADS-B
12:28AM 39.4281 -75.0195 62° Northeast 520 598 35,000  Level FlightAware ADS-B
12:29AM 39.4649 -74.9280 62° Northeast 522 601 35,000  Level FlightAware ADS-B
12:29AM 39.5003 -74.8395 63° Northeast 522 601 35,000  Level FlightAware ADS-B
12:30AM 39.5335 -74.7564 63° Northeast 522 601 35,000  Level FlightAware ADS-B
12:30AM 39.5677 -74.6703 63° Northeast 521 600 35,000  Level FlightAware ADS-B
12:31AM 39.6012 -74.5859 63° Northeast 523 602 35,000  Level FlightAware ADS-B
12:31AM 39.6350 -74.5006 63° Northeast 525 604 35,000  Level FlightAware ADS-B
12:32AM 39.6681 -74.4167 63° Northeast 524 603 35,000  Level FlightAware ADS-B
12:32AM 39.7020 -74.3307 63° Northeast 524 603 35,000  Level FlightAware ADS-B
12:33AM 39.7358 -74.2445 63° Northeast 525 604 35,000  Level FlightAware ADS-B
12:33AM 39.7706 -74.1559 63° Northeast 525 604 35,000  Level FlightAware ADS-B
12:34AM 39.8037 -74.0712 63° Northeast 525 604 35,000  Level FlightAware ADS-B
12:34AM 39.8375 -73.9848 63° Northeast 525 604 35,000  Level FlightAware ADS-B
12:35AM 39.8706 -73.9000 63° Northeast 525 604 35,000  Level FlightAware ADS-B
12:35AM 39.9038 -73.8145 63° Northeast 524 603 35,000  Level FlightAware ADS-B
12:36AM 39.9370 -73.7277 63° Northeast 524 603 35,000  Level FlightAware ADS-B
12:36AM 39.9706 -73.6382 64° Northeast 525 604 35,000  Level FlightAware ADS-B
12:37AM 40.0025 -73.5527 64° Northeast 523 602 35,000  Level FlightAware ADS-B
12:37AM 40.0353 -73.4652 64° Northeast 521 600 35,000  Level FlightAware ADS-B
12:38AM 40.0673 -73.3796 64° Northeast 519 597 35,000  Level FlightAware ADS-B
12:38AM 40.0997 -73.2927 64° Northeast 517 595 35,000  Level FlightAware ADS-B
12:39AM 40.1358 -73.1955 64° Northeast 513 590 35,000  Level FlightAware ADS-B
12:40AM 40.1667 -73.1121 64° Northeast 512 589 35,000  Level FlightAware ADS-B
12:40AM 40.1979 -73.0276 64° Northeast 512 589 35,000  Level FlightAware ADS-B
12:41AM 40.2286 -72.9441 64° Northeast 512 589 35,000  Level FlightAware ADS-B
12:41AM 40.2597 -72.8593 64° Northeast 513 590 35,000  Level FlightAware ADS-B
12:42AM 40.2907 -72.7748 64° Northeast 514 592 35,000  Level FlightAware ADS-B
12:42AM 40.3220 -72.6891 64° Northeast 514 592 35,000  Level FlightAware ADS-B
12:43AM 40.3527 -72.6048 64° Northeast 516 594 35,000  Level FlightAware ADS-B
12:43AM 40.3834 -72.5201 65° Northeast 518 596 35,000  Level FlightAware ADS-B
12:44AM 40.4149 -72.4329 65° Northeast 519 597 35,000  Level FlightAware ADS-B
12:44AM 40.4459 -72.3471 65° Northeast 520 598 35,000  Level FlightAware ADS-B
12:45AM 40.4803 -72.2514 65° Northeast 520 598 35,000  Level FlightAware ADS-B
12:45AM 40.5132 -72.1595 65° Northeast 520 598 35,000  Level FlightAware ADS-B
12:46AM 40.5452 -72.0699 65° Northeast 519 597 35,000  Level FlightAware ADS-B
12:46AM 40.5763 -71.9827 65° Northeast 519 597 35,000  Level FlightAware ADS-B
12:47AM 40.6068 -71.8966 65° Northeast 519 597 35,000  Level FlightAware ADS-B
12:47AM 40.6375 -71.8103 65° Northeast 520 598 35,000  Level FlightAware ADS-B
12:48AM 40.6715 -71.7138 65° Northeast 520 598 35,000  Level FlightAware ADS-B
12:48AM 40.7037 -71.6223 65° Northeast 522 601 35,000  Level FlightAware ADS-B
12:49AM 40.7360 -71.5300 65° Northeast 522 601 35,000  Level FlightAware ADS-B
12:49AM 40.7699 -71.4332 65° Northeast 522 601 35,000  Level FlightAware ADS-B
12:50AM 40.8280 -71.2660 65° Northeast 519 597 35,000  Level FlightAware
12:51AM 40.8670 -71.1530 65° Northeast 519 597 35,000  Level FlightAware
12:52AM 40.9100 -71.0270 66° East 522 601 35,000  Level FlightAware
12:52AM 40.9273 -70.9780 65° Northeast 523 602 35,000  Level FlightAware ADS-B
12:53AM 40.9649 -70.8682 66° East 522 601 35,000  Level FlightAware ADS-B
12:53AM 41.0040 -70.7550 65° Northeast 520 598 35,000  Level FlightAware
12:54AM 41.0360 -70.6580 66° East 520 598 35,000  Level FlightAware
12:55AM 41.0890 -70.5060 65° Northeast 524 603 35,000  Level FlightAware
12:56AM 41.1380 -70.3570 66° East 525 604 35,000  Level FlightAware
12:56AM 41.1680 -70.2670 66° East 525 604 35,000  Level FlightAware
12:57AM 41.2230 -70.1020 66° East 35,000  Level FlightAware
12:58AM 41.2453 -70.0356 66° East 518 596 35,000  Level Boston Center
12:59AM 41.2972 -69.8483 70° East 531 611 35,000  Level Boston Center
01:00AM 41.3600 -69.6744 64° Northeast 520 598 35,000  Level Boston Center
01:01AM 41.4178 -69.4947 67° East 520 598 35,000  Level Boston Center
01:02AM 41.4856 -69.2975 65° Northeast 526 605 35,000  Level Boston Center
01:03AM 41.5414 -69.1367 65° Northeast 526 605 35,000  Level Boston Center
01:04AM 41.6022 -68.9392 68° East 526 605 35,000  Level Boston Center
01:05AM 41.6589 -68.7553 68° East 526 605 35,000  Level Boston Center
01:06AM 41.7153 -68.5767 67° East 526 605 35,000  Level Boston Center
01:07AM 41.7714 -68.3922 68° East 526 605 35,000  Level Boston Center
01:12AM 42.1090 -67.3000 68° East 527 606 35,000  Level FlightAware
01:13AM 42.1480 -67.1680 68° East 526 605 35,000  Level FlightAware
01:14AM 42.1760 -67.0750 68° East 526 605 35,000  Level FlightAware
01:15AM 42.2140 -66.9480 68° East 526 605 35,000  Level FlightAware
01:15AM 42.2420 -66.8550 68° East 526 605 35,000  Level FlightAware
01:16AM 42.2790 -66.7300 68° East 526 605 35,000  Level FlightAware
01:17AM 42.3070 -66.6370 68° East 526 605 35,000  Level FlightAware
01:18AM 42.3440 -66.5120 68° East 526 605 35,000  Level FlightAware
01:18AM 42.3720 -66.4190 68° East 526 605 35,000  Level FlightAware
01:19AM 42.4090 -66.2940 68° East 526 605 35,000  Level FlightAware
01:20AM 42.4380 -66.1980 68° East 526 605 35,000  Level FlightAware
01:20AM 42.4750 -66.0730 68° East 526 605 35,000  Level FlightAware
01:21AM 42.5030 -65.9800 68° East 526 605 35,000  Level FlightAware
01:22AM 42.5400 -65.8550 68° East 526 605 35,000  Level FlightAware
01:22AM 42.5680 -65.7610 68° East 526 605 35,000  Level FlightAware
01:23AM 42.6167 -65.3500 68° East 540 621 35,000  Level Moncton Center
01:24AM 42.6667 -65.1500 71° East 540 621 35,000  Level Moncton Center
01:25AM 42.7000 -64.9667 76° East 540 621 35,000  Level Moncton Center
01:26AM 42.7500 -64.7833 70° East 540 621 35,000  Level Moncton Center
01:28AM 42.8333 -64.4000 73° East 540 621 35,000  Level Moncton Center
01:29AM 42.8833 -64.2000 71° East 540 621 35,000  Level Moncton Center
01:30AM 42.9333 -63.9833 72° East 540 621 35,000  Level Moncton Center
01:31AM 42.9833 -63.7833 71° East 540 621 35,000  Level Moncton Center
01:32AM 43.0333 -63.6000 69° East 540 621 35,000  Level Moncton Center
01:33AM 43.0833 -63.3833 72° East 540 621 35,000  Level Moncton Center
01:34AM 43.1167 -63.2000 76° East 550 633 35,000  Level Moncton Center
01:35AM 43.1667 -63.0000 71° East 550 633 35,000  Level Moncton Center
01:36AM 43.2000 -62.8000 77° East 540 621 35,000  Level Moncton Center
01:37AM 43.2500 -62.6000 71° East 540 621 35,000  Level Moncton Center
01:38AM 43.3000 -62.4000 71° East 540 621 35,000  Level Moncton Center
01:38AM 43.3000 -62.3333 90° East 550 633 35,000  Level Gander Center
01:39AM 43.3333 -62.1500 76° East 540 621 35,000  Level Gander Center
01:40AM 43.3833 -62.0000 65° Northeast 540 621 35,000  Level Moncton Center
01:41AM 43.4167 -61.8000 77° East 540 621 35,000  Level Moncton Center
01:42AM 43.4667 -61.5833 72° East 540 621 35,000  Level Moncton Center
01:43AM 43.5167 -61.4000 69° East 550 633 35,000  Level Moncton Center
01:43AM 43.5167 -61.3333 90° East 550 633 35,000  Level Gander Center
01:44AM 43.5667 -61.1500 69° East 550 633 35,000  Level Gander Center
01:45AM 43.5833 -61.0000 81° East 550 633 35,000  Level Moncton Center
01:46AM 43.6333 -60.8000 71° East 550 633 35,000  Level Moncton Center
01:47AM 43.6667 -60.5833 78° East 550 633 35,000  Level Moncton Center
01:47AM 43.6833 -60.5167 71° East 550 633 35,000  Level Gander Center
01:48AM 43.7167 -60.3167 77° East 550 633 35,000  Level Gander Center
01:54AM 43.9700 -59.1260 77° East 559 643 35,000  Level FlightAware
01:55AM 43.9970 -58.9790 76° East 559 643 35,000  Level FlightAware
01:55AM 44.0230 -58.8370 76° East 558 642 35,000  Level FlightAware
01:56AM 44.0470 -58.7050 76° East 559 643 35,000  Level FlightAware
01:57AM 44.0770 -58.5350 76° East 560 644 35,000  Level FlightAware
01:57AM 44.0990 -58.4110 76° East 561 646 35,000  Level FlightAware
01:58AM 44.1210 -58.2920 76° East 561 646 35,000  Level FlightAware
01:59AM 44.1550 -58.0940 76° East 564 649 35,000  Level FlightAware
02:00AM 44.1810 -57.9460 76° East 564 649 35,000  Level FlightAware
02:00AM 44.2050 -57.8070 76° East 565 650 35,000  Level FlightAware
02:01AM 44.2400 -57.6010 77° East 566 651 35,000  Level FlightAware
02:02AM 44.2640 -57.4610 76° East 566 651 35,000  Level FlightAware
02:03AM 44.2900 -57.3030 77° East 569 655 35,000  Level FlightAware
02:03AM 44.3120 -57.1750 76° East 570 656 35,000  Level FlightAware
02:04AM 44.3430 -56.9820 77° East 570 656 35,000  Level FlightAware
02:05AM 44.3610 -56.8720 77° East 570 656 35,000  Level FlightAware
02:06AM 44.3970 -56.6490 77° East 570 656 35,000  Level FlightAware
02:06AM 44.4200 -56.5090 77° East 571 657 35,000  Level FlightAware
02:07AM 44.4390 -56.3890 77° East 572 658 35,000  Level FlightAware
02:08AM 44.4640 -56.2100 79° East 578 665 35,000  Level FlightAware
02:08AM 44.4800 -56.0940 79° East 578 665 35,000  Level FlightAware
02:09AM 44.5010 -55.9440 79° East 578 665 35,000  Level FlightAware
02:10AM 44.5160 -55.8310 79° East 578 665 35,000  Level FlightAware
02:11AM 44.5370 -55.6810 79° East 578 665 35,000  Level FlightAware
02:11AM 44.5530 -55.5650 79° East 578 665 35,000  Level FlightAware
02:12AM 44.5690 -55.4530 79° East 578 665 35,000  Level FlightAware
02:13AM 44.5890 -55.3020 79° East 578 665 35,000  Level FlightAware
02:13AM 44.6050 -55.1860 79° East 578 665 35,000  Level FlightAware
02:14AM 44.6260 -55.0360 79° East 578 665 35,000  Level FlightAware
02:15AM 44.6420 -54.9230 79° East 578 665 35,000  Level FlightAware
02:15AM 44.6630 -54.7720 79° East 578 665 35,000  Level FlightAware
02:16AM 44.6790 -54.6560 79° East 578 665 35,000  Level FlightAware
02:17AM 44.7050 -54.4680 79° East 578 665 35,000  Level FlightAware
02:17AM 44.6833 -53.9667 79° East 580 667 35,000  Level Gander Center
02:18AM 44.6833 -53.8500 90° East 580 667 35,000  Level Gander Center
02:18AM 44.7000 -53.7500 77° East 580 667 35,000  Level Gander Center
02:19AM 44.7167 -53.5167 84° East 580 667 35,000  Level Gander Center
02:20AM 44.7167 -53.4667 90° East 570 656 35,000  Level Moncton Center
02:21AM 44.7500 -53.2333 79° East 580 667 35,000  Level Moncton Center
02:21AM 44.7500 -53.1833 90° East 580 667 35,000  Level Gander Center
02:22AM 44.7500 -53.0167 90° East 590 679 35,000  Level Moncton Center
02:22AM 44.7833 -52.8500 74° East 570 656 35,000  Level Gander Center
02:23AM 44.8000 -52.6333 84° East 580 667 35,000  Level Gander Center
02:24AM 44.8000 -52.4833 90° East 580 667 35,000  Level Gander Center
02:25AM 44.8167 -52.3167 82° East 580 667 35,000  Level Moncton Center
02:26AM 44.8333 -52.1000 84° East 580 667 35,000  Level Moncton Center
02:26AM 44.8500 -52.0333 71° East 580 667 35,000  Level Gander Center
02:27AM 44.8667 -51.8167 84° East 570 656 35,000  Level Gander Center
02:27AM 44.8667 -51.7500 90° East 590 679 35,000  Level Gander Center
02:28AM 44.8833 -51.6667 74° East 580 667 35,000  Level Moncton Center
02:28AM 44.8833 -51.6000 90° East 570 656 35,000  Level Gander Center
02:29AM 44.8833 -51.3667 90° East 570 656 35,000  Level Gander Center
02:30AM 44.9000 -51.1667 83° East 570 656 35,000  Level Gander Center
02:30AM 44.9167 -51.0667 77° East 570 656 35,000  Level Gander Center
02:31AM 44.9167 -50.9333 90° East 560 644 35,000  Level Gander Center
02:32AM 44.9333 -50.7167 84° East 560 644 35,000  Level Gander Center
02:33AM 44.9500 -50.5000 84° East 550 633 35,000  Level Gander Center
02:34AM 44.9500 -50.2833 90° East 560 644 35,000  Level Gander Center
02:35AM 44.9833 -50.0667 78° East 550 633 35,000  Level Gander Center
02:36AM 45.0167 -49.8667 77° East 550 633 35,000  Level Gander Center
02:37AM 45.0333 -49.6500 84° East 540 621 35,000  Level Gander Center
02:38AM 45.0833 -49.4500 70° East 540 621 35,000  Level Gander Center
02:39AM 45.1167 -49.2500 77° East 530 610 35,000  Level Gander Center
02:39AM 45.1333 -49.1833 70° East 530 610 35,000  Level Gander Center
02:40AM 45.1833 -48.9667 72° East 540 621 35,000  Level Gander Center
02:41AM 45.2167 -48.8667 65° Northeast 530 610 35,000  Level Gander Center
02:42AM 45.2667 -48.6500 72° East 530 610 35,000  Level Gander Center
02:42AM 45.2667 -48.6000 90° East 530 610 35,000  Level Gander Center
02:43AM 45.3333 -48.3833 66° East 540 621 35,000  Level Gander Center
02:44AM 45.3500 -48.2667 78° East 530 610 35,000  Level Gander Center
02:45AM 45.3833 -48.0667 77° East 540 621 35,000  Level Gander Center
02:45AM 45.4167 -47.9833 60° Northeast 540 621 35,000  Level Gander Center
02:46AM 45.4500 -47.7833 77° East 540 621 35,000  Level Gander Center
02:47AM 45.5167 -47.5833 65° Northeast 530 610 35,000  Level Gander Center
02:49AM 45.5641 -47.3803 71° East  Level FlightAware Approximate
02:56AM 45.8759 -45.9957 72° East  Level FlightAware Approximate
02:57AM 45.9190 -45.7966 73° East  Level FlightAware Approximate
02:58AM 45.9619 -45.5973 73° East  Level FlightAware Approximate
02:59AM 46.0043 -45.3976 73° East  Level FlightAware Approximate
03:00AM 46.0465 -45.1976 73° East  Level FlightAware Approximate
03:01AM 46.0883 -44.9973 73° East  Level FlightAware Approximate
03:02AM 46.1297 -44.7967 73° East  Level FlightAware Approximate
03:03AM 46.1708 -44.5959 73° East  Level FlightAware Approximate
03:04AM 46.2115 -44.3947 74° East  Level FlightAware Approximate
03:05AM 46.2519 -44.1932 74° East  Level FlightAware Approximate
03:06AM 46.2919 -43.9914 74° East  Level FlightAware Approximate
03:07AM 46.3315 -43.7894 74° East  Level FlightAware Approximate
03:08AM 46.3708 -43.5870 74° East  Level FlightAware Approximate
03:09AM 46.4098 -43.3844 74° East  Level FlightAware Approximate
03:10AM 46.4484 -43.1814 75° East  Level FlightAware Approximate
03:11AM 46.4866 -42.9782 75° East  Level FlightAware Approximate
03:12AM 46.5245 -42.7747 75° East  Level FlightAware Approximate
03:13AM 46.5620 -42.5709 75° East  Level FlightAware Approximate
03:14AM 46.5991 -42.3668 75° East  Level FlightAware Approximate
03:15AM 46.6359 -42.1625 75° East  Level FlightAware Approximate
03:16AM 46.6723 -41.9579 75° East  Level FlightAware Approximate
03:17AM 46.7084 -41.7529 76° East  Level FlightAware Approximate
03:18AM 46.7441 -41.5478 76° East  Level FlightAware Approximate
03:19AM 46.7794 -41.3423 76° East  Level FlightAware Approximate
03:20AM 46.8143 -41.1366 76° East  Level FlightAware Approximate
03:21AM 46.8489 -40.9306 76° East  Level FlightAware Approximate
03:22AM 46.8831 -40.7244 76° East  Level FlightAware Approximate
03:23AM 46.9170 -40.5179 76° East  Level FlightAware Approximate
03:24AM 46.9504 -40.3111 77° East  Level FlightAware Approximate
03:25AM 46.9835 -40.1041 77° East  Level FlightAware Approximate
03:26AM 47.0248 -39.9005 70° East  Level FlightAware Approximate
03:27AM 47.0745 -39.7004 70° East  Level FlightAware Approximate
03:28AM 47.1237 -39.4999 70° East  Level FlightAware Approximate
03:29AM 47.1726 -39.2990 70° East  Level FlightAware Approximate
03:30AM 47.2212 -39.0978 70° East  Level FlightAware Approximate
03:31AM 47.2694 -38.8962 71° East  Level FlightAware Approximate
03:32AM 47.3173 -38.6943 71° East  Level FlightAware Approximate
03:33AM 47.3648 -38.4919 71° East  Level FlightAware Approximate
03:34AM 47.4119 -38.2892 71° East  Level FlightAware Approximate
03:35AM 47.4587 -38.0862 71° East  Level FlightAware Approximate
03:36AM 47.5052 -37.8828 71° East  Level FlightAware Approximate
03:37AM 47.5512 -37.6790 71° East  Level FlightAware Approximate
03:38AM 47.5970 -37.4749 72° East  Level FlightAware Approximate
03:39AM 47.6423 -37.2704 72° East  Level FlightAware Approximate
03:40AM 47.6873 -37.0656 72° East  Level FlightAware Approximate
03:41AM 47.7319 -36.8604 72° East  Level FlightAware Approximate
03:42AM 47.7761 -36.6548 72° East  Level FlightAware Approximate
03:43AM 47.8200 -36.4489 72° East  Level FlightAware Approximate
03:44AM 47.8635 -36.2427 72° East  Level FlightAware Approximate
03:45AM 47.9067 -36.0361 73° East  Level FlightAware Approximate
03:46AM 47.9495 -35.8292 73° East  Level FlightAware Approximate
03:47AM 47.9919 -35.6219 73° East  Level FlightAware Approximate
03:48AM 48.0339 -35.4143 73° East  Level FlightAware Approximate
03:49AM 48.0756 -35.2064 73° East  Level FlightAware Approximate
03:50AM 48.1175 -34.9984 73° East  Level FlightAware Approximate
03:51AM 48.1600 -34.7905 73° East  Level FlightAware Approximate
03:52AM 48.2021 -34.5823 73° East  Level FlightAware Approximate
03:53AM 48.2439 -34.3737 73° East  Level FlightAware Approximate
03:54AM 48.2853 -34.1648 73° East  Level FlightAware Approximate
03:55AM 48.3263 -33.9555 74° East  Level FlightAware Approximate
03:56AM 48.3658 -33.7455 75° East  Level FlightAware Approximate
03:57AM 48.4034 -33.5345 75° East  Level FlightAware Approximate
03:58AM 48.4406 -33.3231 75° East  Level FlightAware Approximate
03:59AM 48.4775 -33.1115 75° East  Level FlightAware Approximate
04:00AM 48.5139 -32.8995 75° East  Level FlightAware Approximate
04:01AM 48.5520 -32.6881 75° East  Level FlightAware Approximate
04:02AM 48.5898 -32.4764 75° East  Level FlightAware Approximate
04:03AM 48.6273 -32.2644 75° East  Level FlightAware Approximate
04:04AM 48.6644 -32.0521 75° East  Level FlightAware Approximate
04:05AM 48.7010 -31.8395 75° East  Level FlightAware Approximate
04:06AM 48.7373 -31.6265 75° East  Level FlightAware Approximate
04:07AM 48.7732 -31.4133 76° East  Level FlightAware Approximate
04:08AM 48.8088 -31.1997 76° East  Level FlightAware Approximate
04:09AM 48.8439 -30.9859 76° East  Level FlightAware Approximate
04:10AM 48.8786 -30.7717 76° East  Level FlightAware Approximate
04:11AM 48.9129 -30.5573 76° East  Level FlightAware Approximate
04:12AM 48.9468 -30.3425 76° East  Level FlightAware Approximate
04:13AM 48.9803 -30.1275 77° East  Level FlightAware Approximate
04:14AM 49.0128 -29.9119 77° East  Level FlightAware Approximate
04:15AM 49.0439 -29.6958 78° East  Level FlightAware Approximate
04:16AM 49.0747 -29.4794 78° East  Level FlightAware Approximate
04:17AM 49.1050 -29.2627 78° East  Level FlightAware Approximate
04:18AM 49.1349 -29.0458 78° East  Level FlightAware Approximate
04:19AM 49.1644 -28.8286 78° East  Level FlightAware Approximate
04:20AM 49.1935 -28.6111 78° East  Level FlightAware Approximate
04:21AM 49.2222 -28.3934 79° East  Level FlightAware Approximate
04:22AM 49.2505 -28.1754 79° East  Level FlightAware Approximate
04:23AM 49.2784 -27.9572 79° East  Level FlightAware Approximate
04:24AM 49.3058 -27.7388 79° East  Level FlightAware Approximate
04:25AM 49.3329 -27.5201 79° East  Level FlightAware Approximate
04:26AM 49.3595 -27.3011 79° East  Level FlightAware Approximate
04:27AM 49.3857 -27.0820 80° East  Level FlightAware Approximate
04:28AM 49.4115 -26.8626 80° East  Level FlightAware Approximate
04:29AM 49.4369 -26.6429 80° East  Level FlightAware Approximate
04:30AM 49.4619 -26.4231 80° East  Level FlightAware Approximate
04:31AM 49.4865 -26.2030 80° East  Level FlightAware Approximate
04:32AM 49.5106 -25.9827 80° East  Level FlightAware Approximate
04:33AM 49.5343 -25.7622 81° East  Level FlightAware Approximate
04:34AM 49.5576 -25.5415 81° East  Level FlightAware Approximate
04:35AM 49.5805 -25.3205 81° East  Level FlightAware Approximate
04:36AM 49.6030 -25.0994 81° East  Level FlightAware Approximate
04:37AM 49.6250 -24.8780 81° East  Level FlightAware Approximate
04:38AM 49.6466 -24.6565 81° East  Level FlightAware Approximate
04:39AM 49.6678 -24.4347 82° East  Level FlightAware Approximate
04:40AM 49.6886 -24.2128 82° East  Level FlightAware Approximate
04:41AM 49.7090 -23.9907 82° East  Level FlightAware Approximate
04:42AM 49.7289 -23.7684 82° East  Level FlightAware Approximate
04:43AM 49.7484 -23.5459 82° East  Level FlightAware Approximate
04:44AM 49.7674 -23.3233 82° East  Level FlightAware Approximate
04:45AM 49.7861 -23.1004 83° East  Level FlightAware Approximate
04:46AM 49.8043 -22.8774 83° East  Level FlightAware Approximate
04:47AM 49.8221 -22.6543 83° East  Level FlightAware Approximate
04:48AM 49.8395 -22.4309 83° East  Level FlightAware Approximate
04:49AM 49.8564 -22.2074 83° East  Level FlightAware Approximate
04:50AM 49.8729 -21.9838 83° East  Level FlightAware Approximate
04:51AM 49.8890 -21.7600 84° East  Level FlightAware Approximate
04:52AM 49.9046 -21.5361 84° East  Level FlightAware Approximate
04:53AM 49.9198 -21.3120 84° East  Level FlightAware Approximate
04:54AM 49.9346 -21.0878 84° East  Level FlightAware Approximate
04:55AM 49.9489 -20.8634 84° East  Level FlightAware Approximate
04:56AM 49.9628 -20.6389 84° East  Level FlightAware Approximate
04:57AM 49.9763 -20.4143 85° East  Level FlightAware Approximate
04:58AM 49.9893 -20.1896 85° East  Level FlightAware Approximate
04:59AM 50.0066 -19.9661 73° East  Level FlightAware Approximate
05:00AM 50.0484 -19.7498 73° East  Level FlightAware Approximate
05:01AM 50.0898 -19.5331 73° East  Level FlightAware Approximate
05:02AM 50.1309 -19.3161 73° East  Level FlightAware Approximate
05:03AM 50.1715 -19.0987 74° East  Level FlightAware Approximate
05:04AM 50.2117 -18.8809 74° East  Level FlightAware Approximate
05:05AM 50.2514 -18.6628 74° East  Level FlightAware Approximate
05:06AM 50.2908 -18.4443 74° East  Level FlightAware Approximate
05:07AM 50.3298 -18.2254 74° East  Level FlightAware Approximate
05:08AM 50.3684 -18.0062 75° East  Level FlightAware Approximate
05:09AM 50.4065 -17.7866 75° East  Level FlightAware Approximate
05:10AM 50.4442 -17.5667 75° East  Level FlightAware Approximate
05:11AM 50.4816 -17.3465 75° East  Level FlightAware Approximate
05:12AM 50.5185 -17.1258 75° East  Level FlightAware Approximate
05:13AM 50.5550 -16.9049 75° East  Level FlightAware Approximate
05:14AM 50.5910 -16.6836 76° East  Level FlightAware Approximate
05:15AM 50.6267 -16.4619 76° East  Level FlightAware Approximate
05:16AM 50.6619 -16.2400 76° East  Level FlightAware Approximate
05:17AM 50.6967 -16.0177 76° East  Level FlightAware Approximate
05:18AM 50.7311 -15.7950 76° East  Level FlightAware Approximate
05:19AM 50.7650 -15.5721 76° East  Level FlightAware Approximate
05:20AM 50.7986 -15.3488 77° East  Level FlightAware Approximate
05:21AM 50.8317 -15.1252 77° East  Level FlightAware Approximate
05:22AM 50.8642 -14.9012 77° East  Level FlightAware Approximate
05:23AM 50.8962 -14.6769 77° East  Level FlightAware Approximate
05:24AM 50.9277 -14.4523 77° East  Level FlightAware Approximate
05:25AM 50.9589 -14.2274 78° East  Level FlightAware Approximate
05:26AM 50.9895 -14.0021 78° East  Level FlightAware Approximate
05:27AM 51.0199 -13.7767 78° East  Level FlightAware Approximate
05:28AM 51.0509 -13.5512 78° East  Level FlightAware Approximate
05:29AM 51.0814 -13.3255 78° East  Level FlightAware Approximate
05:30AM 51.1115 -13.0995 78° East  Level FlightAware Approximate
05:31AM 51.1412 -12.8732 78° East  Level FlightAware Approximate
05:32AM 51.1704 -12.6466 78° East  Level FlightAware Approximate
05:33AM 51.1992 -12.4197 78° East  Level FlightAware Approximate
05:34AM 51.2275 -12.1925 79° East  Level FlightAware Approximate
05:34AM 51.4720 -10.5400 79° East 575 662 35,000  Level FlightAware
05:35AM 51.2554 -11.9650 79° East  Level FlightAware Approximate
05:35AM 51.4880 -10.3750 81° East 575 662 35,000  Level FlightAware
05:36AM 51.5040 -10.2020 81° East 574 661 35,000  Level FlightAware
05:37AM 51.5260 -9.9600 82° East 573 659 35,000  Level FlightAware
05:37AM 51.5420 -9.7780 82° East 574 661 35,000  Level FlightAware
05:38AM 51.5590 -9.5920 82° East 574 661 35,000  Level FlightAware
05:39AM 51.5730 -9.4250 82° East 573 659 35,000  Level FlightAware
05:40AM 51.5870 -9.2590 82° East 573 659 35,000  Level FlightAware
05:40AM 51.6030 -9.0670 82° East 573 659 35,000  Level FlightAware
05:41AM 51.6098 -8.9827 82° East 474 545 35,000  Level FlightAware UK
05:41AM 51.6202 -8.8564 82° East 476 548 35,000  Level FlightAware UK
05:41AM 51.6220 -8.8370 82° East 573 659 35,000  Level FlightAware
05:42AM 51.6304 -8.7300 82° East 476 548 35,000  Level FlightAware UK
05:42AM 51.6340 -8.6800 82° East 572 658 35,000  Level FlightAware
05:42AM 51.6405 -8.6036 82° East 476 548 35,000  Level FlightAware UK
05:42AM 51.6490 -8.4980 83° East 572 658 35,000  Level FlightAware
05:43AM 51.6502 -8.4772 83° East 476 548 35,000  Level FlightAware UK
05:43AM 51.6598 -8.3507 83° East 474 545 35,000  Level FlightAware UK
05:43AM 51.6610 -8.3360 83° East 572 658 35,000  Level FlightAware
05:44AM 51.6693 -8.2234 83° East 474 545 35,000  Level FlightAware UK
05:44AM 51.6760 -8.1360 83° East 572 658 35,000  Level FlightAware
05:45AM 51.6892 -7.9705 83° East 476 548 35,000  Level FlightAware UK
05:45AM 51.6890 -7.9570 83° East 570 656 35,000  Level FlightAware
05:45AM 51.7003 -7.8188 83° East 476 548 35,000  Level FlightAware UK
05:45AM 51.6980 -7.8430 83° East 570 656 35,000  Level FlightAware
05:46AM 51.7092 -7.6925 83° East 476 548 35,000  Level FlightAware UK
05:46AM 51.7150 -7.5930 83° East 568 654 35,000  Level FlightAware
05:46AM 51.7215 -7.5159 83° East 476 548 35,000  Level FlightAware UK
05:47AM 51.7270 -7.4170 83° East 566 651 35,000  Level FlightAware
05:47AM 51.7390 -7.2500 83° East 564 649 35,000  Level FlightAware
05:47AM 51.7396 -7.2399 83° East 474 545 35,000  Level FlightAware UK
05:48AM 51.7469 -7.1143 83° East 474 545 35,000  Level FlightAware UK
05:48AM 51.7510 -7.0660 83° East 564 649 35,000  Level FlightAware
05:48AM 51.7553 -6.9893 83° East 474 545 35,000  Level FlightAware UK
05:49AM 51.7620 -6.8820 83° East 562 647 35,000  Level FlightAware
05:50AM 51.7732 -6.7142 83° East 476 548 35,000  Level FlightAware UK
05:50AM 51.7730 -6.7140 83° East 560 644 35,000  Level FlightAware
05:50AM 51.7803 -6.5889 83° East 476 548 35,000  Level FlightAware UK
05:50AM 51.7790 -6.5510 83° East 559 643 35,000  Level FlightAware
05:51AM 51.7783 -6.4644 83° East 474 545 35,000  Level FlightAware UK
05:51AM 51.7730 -6.3151 93° East 474 545 35,000  Level FlightAware UK
05:51AM 51.7730 -6.3220 93° East 557 641 35,000  Level FlightAware
05:52AM 51.7681 -6.1910 93° East 476 548 35,000  Level FlightAware UK
05:52AM 51.7660 -6.1580 93° East 557 641 35,000  Level FlightAware
05:52AM 51.7627 -6.0662 93° East 474 545 35,000  Level FlightAware UK
05:53AM 51.7570 -5.9550 93° East 555 639 35,000  Level FlightAware
05:53AM 51.7505 -5.7940 93° East 476 548 35,000  Level FlightAware UK
05:53AM 51.7500 -5.7930 93° East 555 639 35,000  Level FlightAware
05:54AM 51.7435 -5.6459 93° East 472 543 35,000  Level FlightAware UK
05:54AM 51.7420 -5.6250 93° East 553 636 35,000  Level FlightAware
05:54AM 51.7376 -5.5227 93° East 474 545 35,000  Level FlightAware UK
05:55AM 51.7330 -5.4340 93° East 553 636 35,000  Level FlightAware
05:55AM 51.7261 -5.2766 93° East 474 545 35,000  Level FlightAware UK
05:55AM 51.7250 -5.2630 93° East 552 635 35,000  Level FlightAware
05:56AM 51.7185 -5.1291 93° East 474 545 35,000  Level FlightAware UK
05:56AM 51.7160 -5.0910 93° East 551 634 35,000 -420 Level FlightAware
05:56AM 51.7121 -5.0056 93° East 472 543 34,800 -480 Descending FlightAware UK
05:57AM 51.7080 -4.9360 93° East 540 621 34,700 -840 Descending FlightAware
05:57AM 51.7000 -4.7730 94° East 538 619 34,000 -1,260 Descending FlightAware
05:58AM 51.6909 -4.5992 94° East 466 536 33,000 -1,260 Descending FlightAware UK
05:58AM 51.6900 -4.5980 94° East 540 621 33,100  Climbing FlightAware
05:59AM 51.6809 -4.4321 94° East 464 534 33,000 -180 Descending FlightAware UK
05:59AM 51.6800 -4.4220 94° East 540 621 33,000  Level FlightAware
05:59AM 51.6742 -4.3123 94° East 466 536 33,000  Level FlightAware UK
06:00AM 51.6720 -4.2830 94° East 541 623 33,000  Level FlightAware
06:00AM 51.6672 -4.1918 94° East 468 539 33,000  Level FlightAware UK
06:00AM 51.6610 -4.0830 94° East 540 621 33,000  Level FlightAware
06:01AM 51.6527 -3.9524 94° East 466 536 33,000  Level FlightAware UK
06:01AM 51.6510 -3.9220 94° East 538 619 33,000  Level FlightAware
06:01AM 51.6455 -3.8329 94° East 466 536 33,000  Level FlightAware UK
06:02AM 51.6400 -3.7500 94° East 529 609 33,000 -300 Level FlightAware
06:02AM 51.6300 -3.5950 96° East 510 587 32,700 -1,200 Descending FlightAware
06:03AM 51.6219 -3.4645 96° East 436 502 31,500 -1,920 Descending FlightAware UK
06:03AM 51.6210 -3.4450 96° East 504 580 31,400 -1,800 Descending FlightAware
06:03AM 51.6146 -3.3531 96° East 430 495 30,600 -1,920 Descending FlightAware UK
06:04AM 51.6090 -3.2790 96° East 496 571 30,000 -1,920 Descending FlightAware
06:04AM 51.6019 -3.1786 96° East 422 486 29,100 -1,980 Descending FlightAware UK
06:04AM 51.5980 -3.1330 96° East 481 554 28,700 -1,980 Descending FlightAware
06:05AM 51.5926 -3.0605 97° East 475 547 28,000 -1,740 Descending FlightAware ADS-B
06:05AM 51.5842 -2.9544 97° East 450 518 27,200 -1,920 Descending FlightAware ADS-B
06:06AM 51.5773 -2.8500 96° East 439 505 26,000 -1,740 Descending FlightAware ADS-B
06:06AM 51.5711 -2.7483 96° East 426 490 25,400 -1,560 Descending FlightAware ADS-B
06:07AM 51.5660 -2.6521 95° East 417 480 24,400 -2,040 Descending FlightAware ADS-B
06:07AM 51.5627 -2.5926 95° East 414 476 23,700 -2,100 Descending FlightAware ADS-B
06:08AM 51.5539 -2.5014 99° East 412 474 22,700 -1,620 Descending FlightAware ADS-B
06:08AM 51.5443 -2.4023 99° East 402 463 22,000 -1,440 Descending FlightAware ADS-B
06:09AM 51.5361 -2.3142 98° East 397 457 21,200 -1,740 Descending FlightAware ADS-B
06:09AM 51.5297 -2.2507 98° East 372 428 20,500 -1,800 Descending FlightAware UK
06:09AM 51.5266 -2.2253 98° East 392 451 20,300 -1,680 Descending FlightAware ADS-B
06:10AM 51.5200 -2.1690 101° East 389 448 19,700 -1,800 Descending FlightAware ADS-B
06:10AM 51.5160 -2.1475 107° East 386 444 19,500 -1,320 Descending FlightAware ADS-B
06:10AM 51.5087 -2.1192 113° Southeast 382 440 19,300 -1,500 Descending FlightAware ADS-B
06:10AM 51.4876 -2.0409 113° Southeast 377 434 18,500 -1,620 Descending FlightAware ADS-B
06:11AM 51.4677 -1.9624 112° Southeast 376 433 17,700 -1,560 Descending FlightAware ADS-B
06:12AM 51.4484 -1.8832 111° Southeast 372 428 16,900 -1,560 Descending FlightAware ADS-B
06:12AM 51.4259 -1.7887 111° Southeast 368 423 16,000 -1,560 Descending FlightAware ADS-B
06:13AM 51.4077 -1.7123 111° Southeast 364 419 15,200 -1,560 Descending FlightAware ADS-B
06:13AM 51.3979 -1.6712 111° Southeast 342 394 14,800 -1,200 Descending FlightAware UK
06:13AM 51.3899 -1.6374 111° Southeast 354 407 14,600 -1,440 Descending FlightAware ADS-B
06:13AM 51.3804 -1.5983 111° Southeast 334 384 14,100 -1,680 Descending FlightAware UK
06:14AM 51.3641 -1.5423 111° Southeast 350 403 13,500 -1,440 Descending FlightAware ADS-B
06:14AM 51.3518 -1.5000 111° Southeast 332 382 13,100 -1,440 Descending FlightAware UK
06:14AM 51.3445 -1.4727 111° Southeast 346 398 12,800 -1,320 Descending FlightAware ADS-B
06:15AM 51.3250 -1.4022 114° Southeast 340 391 12,200 -1,200 Descending FlightAware ADS-B
06:15AM 51.3059 -1.3345 114° Southeast 329 379 11,600 -1,140 Descending FlightAware ADS-B
06:15AM 51.3021 -1.3208 114° Southeast 329 379 11,500 -600 Descending FlightAware ADS-B
06:15AM 51.3000 -1.3117 110° East 330 380 11,500 -1,020 Level FlightAware ADS-B
06:16AM 51.2967 -1.2919 105° East 330 380 11,300 -1,200 Descending FlightAware ADS-B
06:16AM 51.2934 -1.2636 101° East 332 382 11,100 -720 Descending FlightAware ADS-B
06:16AM 51.2920 -1.2299 94° East 333 383 11,000 -180 Descending FlightAware ADS-B
06:17AM 51.2930 -1.1585 89° East 335 386 11,000  Level FlightAware ADS-B
06:17AM 51.2943 -1.0830 88° East 335 386 11,000  Level FlightAware ADS-B
06:17AM 51.2955 -1.0277 88° East 318 366 11,000  Level FlightAware UK
06:18AM 51.2959 -1.0081 88° East 337 388 11,000  Level FlightAware ADS-B
06:18AM 51.2971 -0.9533 88° East 320 368 11,000  Level FlightAware UK
06:18AM 51.2975 -0.9335 88° East 335 386 11,000  Level FlightAware ADS-B
06:18AM 51.2984 -0.8792 88° East 318 366 11,000  Level FlightAware UK
06:19AM 51.2987 -0.8598 88° East 333 383 11,000  Level FlightAware ADS-B
06:19AM 51.3000 -0.7857 88° East 327 376 11,000  Level FlightAware ADS-B
06:19AM 51.3009 -0.7260 89° East 312 359 11,000 -240 Level FlightAware ADS-B
06:20AM 51.3019 -0.6563 89° East 308 354 10,800 -420 Descending FlightAware ADS-B
06:20AM 51.3030 -0.5894 88° East 290 334 10,600 -540 Descending FlightAware ADS-B
06:21AM 51.3039 -0.5250 89° East 275 316 10,300 -540 Descending FlightAware ADS-B
06:21AM 51.3047 -0.4733 89° East 266 306 10,100 -480 Descending FlightAware ADS-B
06:22AM 51.3065 -0.4457 84° East 267 307 10,000 -180 Descending FlightAware ADS-B
06:22AM 51.3167 -0.3831 75° East 270 311 10,000  Level FlightAware ADS-B
06:23AM 51.3264 -0.3255 75° East 270 311 10,000 -780 Level FlightAware ADS-B
06:23AM 51.3322 -0.2911 75° East 267 307 9,400 -2,220 Descending FlightAware ADS-B
06:23AM 51.3369 -0.2624 75° East 268 308 8,800 -2,400 Descending FlightAware ADS-B
06:23AM 51.3407 -0.2384 76° East 265 305 8,300 -2,400 Descending FlightAware ADS-B
06:24AM 51.3453 -0.2096 76° East 267 307 7,700 -2,460 Descending FlightAware ADS-B
06:24AM 51.3491 -0.1867 75° East 268 308 7,200 -1,860 Descending FlightAware ADS-B
06:24AM 51.3527 -0.1655 75° East 271 312 7,000 -960 Descending FlightAware ADS-B
06:24AM 51.3579 -0.1361 74° East 267 307 6,800 -600 Descending FlightAware ADS-B
06:25AM 51.3625 -0.1088 75° East 261 300 6,700 -600 Descending FlightAware ADS-B
06:25AM 51.3672 -0.0803 75° East 258 297 6,500 -780 Descending FlightAware ADS-B
06:25AM 51.3717 -0.0529 75° East 250 288 6,300 -540 Descending FlightAware ADS-B
06:25AM 51.3737 -0.0402 76° East 244 281 6,300  Level FlightAware ADS-B
06:25AM 51.3757 -0.0307 71° East 242 278 6,300 -600 Level FlightAware ADS-B
06:25AM 51.3774 -0.0242 67° East 240 276 6,200 -780 Descending FlightAware ADS-B
06:25AM 51.3797 -0.0182 58° Northeast 237 273 6,200  Level FlightAware ADS-B
06:26AM 51.3825 -0.0128 50° Northeast 235 270 6,200  Level FlightAware ADS-B
06:26AM 51.3853 -0.0086 43° Northeast 233 268 6,200  Level FlightAware ADS-B
06:26AM 51.3904 -0.0033 33° Northeast 225 259 6,200 -600 Level FlightAware ADS-B
06:26AM 51.3948 -0.0005 22° Northeast 221 254 6,100 -780 Descending FlightAware ADS-B
06:26AM 51.3983 0.0009 14° North 218 251 6,100  Level FlightAware ADS-B
06:26AM 51.4021 0.0017 North 215 247 6,100 -600 Level FlightAware ADS-B
06:26AM 51.4091 0.0023 North 212 244 6,000 -600 Descending FlightAware ADS-B
06:26AM 51.4240 0.0026 North 212 244 5,900 -420 Descending FlightAware ADS-B
06:27AM 51.4389 0.0027 360° North 211 243 5,800 -300 Descending FlightAware ADS-B
06:27AM 51.4453 0.0022 357° North 209 241 5,800  Level FlightAware ADS-B
06:27AM 51.4496 0.0007 348° North 207 238 5,800 -780 Level FlightAware ADS-B
06:27AM 51.4524 -0.0009 340° North 207 238 5,700 -1,020 Descending FlightAware ADS-B
06:27AM 51.4553 -0.0033 333° Northwest 205 236 5,700 -720 Level FlightAware ADS-B
06:27AM 51.4598 -0.0091 321° Northwest 199 229 5,600 -1,020 Descending FlightAware ADS-B
06:27AM 51.4628 -0.0159 305° West 193 222 5,500 -1,140 Descending FlightAware ADS-B
06:27AM 51.4641 -0.0220 289° West 189 217 5,400 -1,500 Descending FlightAware ADS-B
06:27AM 51.4647 -0.0263 283° West 185 213 5,300 -1,740 Descending FlightAware ADS-B
06:27AM 51.4651 -0.0314 277° West 184 212 5,200 -1,320 Descending FlightAware ADS-B
06:27AM 51.4655 -0.0449 273° West 182 209 5,000 -1,440 Descending FlightAware ADS-B
06:28AM 51.4659 -0.0607 272° West 184 212 4,700 -1,380 Descending FlightAware ADS-B
06:28AM 51.4659 -0.0696 270° West 185 213 4,600 -1,080 Descending FlightAware ADS-B
06:28AM 51.4657 -0.0825 269° West 185 213 4,400 -960 Descending FlightAware ADS-B
06:28AM 51.4655 -0.1038 269° West 183 211 4,200 -960 Descending FlightAware ADS-B
06:28AM 51.4655 -0.1164 270° West 182 209 4,000 -1,200 Descending FlightAware ADS-B
06:29AM 51.4655 -0.1380 270° West 182 209 3,700 -1,140 Descending FlightAware ADS-B
06:29AM 51.4655 -0.1597 270° West 184 212 3,400 -960 Descending FlightAware ADS-B
06:29AM 51.4655 -0.1816 270° West 181 208 3,200 -1,020 Descending FlightAware ADS-B
06:29AM 51.4654 -0.2018 270° West 180 207 2,900 -960 Descending FlightAware ADS-B
06:30AM 51.4655 -0.2235 270° West 172 198 2,700 -960 Descending FlightAware ADS-B
06:30AM 51.4654 -0.2436 270° West 161 185 2,400 -1,020 Descending FlightAware ADS-B
06:30AM 51.4654 -0.2616 270° West 160 184 2,200 -960 Descending FlightAware ADS-B
06:30AM 51.4651 -0.2831 270° West 168 193 1,900 -960 Descending FlightAware UK
06:31AM 51.4653 -0.2923 270° West 164 189 1,800 -840 Descending FlightAware ADS-B
06:31AM 51.4651 -0.3261 270° West 158 182 1,400 -780 Descending FlightAware UK
06:31AM 51.4650 -0.3430 270° West 140 161 1,200 -780 Descending FlightAware
06:32AM 51.4650 -0.3828 270° West 144 166 700 -900 Descending FlightAware UK